sensor_id;sensor_type;location;lat;lon;timestamp;pressure;altitude;pressure_sealevel;temperature;humidity
10618;BME280;5356;43.526;26.534;2023-07-09T00:01:23;99270.22;;;18.88;100.00
10618;BME280;5356;43.526;26.534;2023-07-09T00:03:49;99271.00;;;18.99;100.00
10618;BME280;5356;43.526;26.534;2023-07-09T00:06:17;99271.78;;;18.99;100.00
10618;BME280;5356;43.526;26.534;2023-07-09T00:08:44;99275.84;;;19.12;100.00
10618;BME280;5356;43.526;26.534;2023-07-09T00:11:14;99265.84;;;19.13;100.00
10618;BME280;5356;43.526;26.534;2023-07-09T00:13:39;99272.84;;;19.19;100.00
10618;BME280;5356;43.526;26.534;2023-07-09T00:16:12;99272.88;;;19.03;100.00
10618;BME280;5356;43.526;26.534;2023-07-09T00:18:38;99273.38;;;19.11;100.00
10618;BME280;5356;43.526;26.534;2023-07-09T00:21:03;99273.97;;;18.92;100.00
10618;BME280;5356;43.526;26.534;2023-07-09T00:23:28;99273.44;;;18.85;100.00
10618;BME280;5356;43.526;26.534;2023-07-09T00:25:55;99276.13;;;18.95;100.00
10618;BME280;5356;43.526;26.534;2023-07-09T00:28:20;99276.13;;;19.00;100.00
10618;BME280;5356;43.526;26.534;2023-07-09T00:30:47;99281.53;;;19.05;100.00
10618;BME280;5356;43.526;26.534;2023-07-09T00:33:14;99280.69;;;19.10;100.00
10618;BME280;5356;43.526;26.534;2023-07-09T00:35:44;99278.28;;;19.09;100.00
10618;BME280;5356;43.526;26.534;2023-07-09T00:38:19;99286.94;;;19.05;100.00
10618;BME280;5356;43.526;26.534;2023-07-09T00:41:13;99286.38;;;19.09;100.00
10618;BME280;5356;43.526;26.534;2023-07-09T00:43:43;99286.09;;;19.15;100.00
10618;BME280;5356;43.526;26.534;2023-07-09T00:48:55;99285.56;;;19.03;100.00
10618;BME280;5356;43.526;26.534;2023-07-09T00:51:24;99290.97;;;19.08;100.00
10618;BME280;5356;43.526;26.534;2023-07-09T00:53:55;99286.38;;;19.09;100.00
10618;BME280;5356;43.526;26.534;2023-07-09T00:56:29;99294.47;;;19.14;100.00
10618;BME280;5356;43.526;26.534;2023-07-09T00:58:58;99295.28;;;19.04;100.00
10618;BME280;5356;43.526;26.534;2023-07-09T01:01:26;99285.28;;;19.04;100.00
10618;BME280;5356;43.526;26.534;2023-07-09T01:03:54;99284.47;;;19.09;100.00
10618;BME280;5356;43.526;26.534;2023-07-09T01:06:39;99287.22;;;18.89;100.00
10618;BME280;5356;43.526;26.534;2023-07-09T01:09:07;99283.16;;;18.91;100.00
10618;BME280;5356;43.526;26.534;2023-07-09T01:11:33;99285.88;;;18.81;100.00
10618;BME280;5356;43.526;26.534;2023-07-09T01:14:01;99287.22;;;18.89;100.00
10618;BME280;5356;43.526;26.534;2023-07-09T01:16:37;99292.34;;;18.54;100.00
10618;BME280;5356;43.526;26.534;2023-07-09T01:19:07;99301.50;;;18.43;100.00
10618;BME280;5356;43.526;26.534;2023-07-09T01:21:33;99285.56;;;18.42;100.00
10618;BME280;5356;43.526;26.534;2023-07-09T01:24:09;99295.25;;;18.43;100.00
10618;BME280;5356;43.526;26.534;2023-07-09T01:26:36;99287.47;;;18.51;100.00
10618;BME280;5356;43.526;26.534;2023-07-09T01:29:03;99286.38;;;18.52;100.00
10618;BME280;5356;43.526;26.534;2023-07-09T01:31:29;99285.84;;;18.60;100.00
10618;BME280;5356;43.526;26.534;2023-07-09T01:33:54;99297.16;;;18.68;100.00
10618;BME280;5356;43.526;26.534;2023-07-09T01:36:21;99290.72;;;18.63;100.00
10618;BME280;5356;43.526;26.534;2023-07-09T01:38:47;99291.25;;;18.55;100.00
10618;BME280;5356;43.526;26.534;2023-07-09T01:41:15;99298.25;;;18.61;100.00
10618;BME280;5356;43.526;26.534;2023-07-09T01:43:42;99296.13;;;18.69;100.00
10618;BME280;5356;43.526;26.534;2023-07-09T01:46:09;99301.50;;;18.69;100.00
10618;BME280;5356;43.526;26.534;2023-07-09T01:48:35;99297.75;;;18.75;100.00
10618;BME280;5356;43.526;26.534;2023-07-09T01:51:10;99300.44;;;18.85;100.00
10618;BME280;5356;43.526;26.534;2023-07-09T01:53:38;99287.72;;;18.91;100.00
10618;BME280;5356;43.526;26.534;2023-07-09T01:56:04;99297.19;;;18.93;100.00
10618;BME280;5356;43.526;26.534;2023-07-09T01:58:32;99302.06;;;18.91;100.00
10618;BME280;5356;43.526;26.534;2023-07-09T02:00:58;99306.38;;;18.97;100.00
10618;BME280;5356;43.526;26.534;2023-07-09T02:03:24;99302.03;;;18.96;100.00
10618;BME280;5356;43.526;26.534;2023-07-09T02:05:53;99309.63;;;18.94;100.00
10618;BME280;5356;43.526;26.534;2023-07-09T02:08:19;99302.88;;;18.87;100.00
10618;BME280;5356;43.526;26.534;2023-07-09T02:10:45;99309.63;;;18.84;100.00
10618;BME280;5356;43.526;26.534;2023-07-09T02:13:13;99315.00;;;18.99;100.00
10618;BME280;5356;43.526;26.534;2023-07-09T02:15:38;99313.91;;;19.16;100.00
10618;BME280;5356;43.526;26.534;2023-07-09T02:18:11;99319.53;;;19.24;100.00
10618;BME280;5356;43.526;26.534;2023-07-09T02:20:37;99316.28;;;19.27;100.00
10618;BME280;5356;43.526;26.534;2023-07-09T02:23:03;99323.59;;;19.22;100.00
10618;BME280;5356;43.526;26.534;2023-07-09T02:25:29;99327.91;;;19.33;100.00
10618;BME280;5356;43.526;26.534;2023-07-09T02:27:54;99324.16;;;19.19;100.00
10618;BME280;5356;43.526;26.534;2023-07-09T02:30:19;99334.41;;;19.22;100.00
10618;BME280;5356;43.526;26.534;2023-07-09T02:32:45;99333.63;;;19.11;100.00
10618;BME280;5356;43.526;26.534;2023-07-09T02:35:10;99332.28;;;19.03;100.00
10618;BME280;5356;43.526;26.534;2023-07-09T02:37:36;99337.13;;;19.06;100.00
10618;BME280;5356;43.526;26.534;2023-07-09T02:40:03;99336.03;;;19.23;100.00
10618;BME280;5356;43.526;26.534;2023-07-09T02:42:29;99341.16;;;19.29;100.00
10618;BME280;5356;43.526;26.534;2023-07-09T02:44:54;99342.78;;;19.31;100.00
10618;BME280;5356;43.526;26.534;2023-07-09T02:47:20;99346.31;;;19.21;100.00
10618;BME280;5356;43.526;26.534;2023-07-09T02:49:45;99343.59;;;19.11;100.00
10618;BME280;5356;43.526;26.534;2023-07-09T02:52:11;99336.59;;;19.10;100.00
10618;BME280;5356;43.526;26.534;2023-07-09T02:54:36;99346.59;;;18.99;100.00
10618;BME280;5356;43.526;26.534;2023-07-09T02:57:02;99349.84;;;18.96;100.00
10618;BME280;5356;43.526;26.534;2023-07-09T02:59:28;99359.56;;;18.97;100.00
10618;BME280;5356;43.526;26.534;2023-07-09T03:01:54;99350.09;;;18.74;100.00
10618;BME280;5356;43.526;26.534;2023-07-09T03:04:20;99351.66;;;18.44;100.00
10618;BME280;5356;43.526;26.534;2023-07-09T03:06:46;99350.06;;;18.43;100.00
10618;BME280;5356;43.526;26.534;2023-07-09T03:09:12;99359.75;;;18.39;100.00
10618;BME280;5356;43.526;26.534;2023-07-09T03:11:38;99355.97;;;18.35;100.00
10618;BME280;5356;43.526;26.534;2023-07-09T03:14:04;99359.16;;;18.16;100.00
10618;BME280;5356;43.526;26.534;2023-07-09T03:16:33;99354.56;;;18.17;100.00
10618;BME280;5356;43.526;26.534;2023-07-09T03:18:59;99354.78;;;18.05;100.00
10618;BME280;5356;43.526;26.534;2023-07-09T03:21:27;99350.25;;;17.58;100.00
10618;BME280;5356;43.526;26.534;2023-07-09T03:23:54;99353.50;;;17.60;100.00
10618;BME280;5356;43.526;26.534;2023-07-09T03:26:19;99353.94;;;17.42;100.00
10618;BME280;5356;43.526;26.534;2023-07-09T03:28:45;99359.94;;;17.54;100.00
10618;BME280;5356;43.526;26.534;2023-07-09T03:31:11;99351.31;;;17.57;100.00
10618;BME280;5356;43.526;26.534;2023-07-09T03:33:36;99356.22;;;17.65;100.00
10618;BME280;5356;43.526;26.534;2023-07-09T03:36:03;99362.19;;;17.72;100.00
10618;BME280;5356;43.526;26.534;2023-07-09T03:38:30;99362.72;;;17.69;100.00
10618;BME280;5356;43.526;26.534;2023-07-09T03:40:55;99358.13;;;17.70;100.00
10618;BME280;5356;43.526;26.534;2023-07-09T03:43:22;99356.84;;;17.83;100.00
10618;BME280;5356;43.526;26.534;2023-07-09T03:45:48;99353.53;;;17.65;100.00
10618;BME280;5356;43.526;26.534;2023-07-09T03:48:15;99358.81;;;17.45;100.00
10618;BME280;5356;43.526;26.534;2023-07-09T03:50:42;99365.41;;;17.74;100.00
10618;BME280;5356;43.526;26.534;2023-07-09T03:53:08;99358.53;;;17.94;100.00
10618;BME280;5356;43.526;26.534;2023-07-09T03:55:34;99359.63;;;17.98;100.00
10618;BME280;5356;43.526;26.534;2023-07-09T03:57:59;99370.97;;;18.05;100.00
10618;BME280;5356;43.526;26.534;2023-07-09T04:00:25;99364.00;;;18.09;100.00
10618;BME280;5356;43.526;26.534;2023-07-09T04:02:51;99364.50;;;18.11;100.00
10618;BME280;5356;43.526;26.534;2023-07-09T04:05:17;99368.56;;;18.14;100.00
10618;BME280;5356;43.526;26.534;2023-07-09T04:07:43;99364.03;;;18.25;100.00
10618;BME280;5356;43.526;26.534;2023-07-09T04:10:10;99363.50;;;18.28;100.00
10618;BME280;5356;43.526;26.534;2023-07-09T04:12:36;99365.91;;;18.24;100.00
10618;BME280;5356;43.526;26.534;2023-07-09T04:15:03;99361.38;;;18.40;100.00
10618;BME280;5356;43.526;26.534;2023-07-09T04:17:29;99358.13;;;18.48;100.00
10618;BME280;5356;43.526;26.534;2023-07-09T04:19:54;99361.66;;;18.49;100.00
10618;BME280;5356;43.526;26.534;2023-07-09T04:22:20;99361.38;;;18.50;100.00
10618;BME280;5356;43.526;26.534;2023-07-09T04:24:46;99362.47;;;18.54;100.00
10618;BME280;5356;43.526;26.534;2023-07-09T04:27:12;99367.31;;;18.52;100.00
10618;BME280;5356;43.526;26.534;2023-07-09T04:29:39;99364.34;;;18.59;100.00
10618;BME280;5356;43.526;26.534;2023-07-09T04:32:06;99367.34;;;18.73;100.00
10618;BME280;5356;43.526;26.534;2023-07-09T04:34:32;99366.31;;;18.84;100.00
10618;BME280;5356;43.526;26.534;2023-07-09T04:36:57;99356.31;;;18.79;100.00
10618;BME280;5356;43.526;26.534;2023-07-09T04:39:23;99369.81;;;18.74;100.00
10618;BME280;5356;43.526;26.534;2023-07-09T04:41:48;99361.44;;;18.81;100.00
10618;BME280;5356;43.526;26.534;2023-07-09T04:44:14;99371.44;;;18.96;100.00
10618;BME280;5356;43.526;26.534;2023-07-09T04:46:40;99367.13;;;18.95;100.00
10618;BME280;5356;43.526;26.534;2023-07-09T04:49:06;99374.41;;;19.04;100.00
10618;BME280;5356;43.526;26.534;2023-07-09T04:51:31;99363.06;;;19.02;100.00
10618;BME280;5356;43.526;26.534;2023-07-09T04:53:57;99370.34;;;19.12;100.00
10618;BME280;5356;43.526;26.534;2023-07-09T04:56:23;99366.31;;;19.15;100.00
10618;BME280;5356;43.526;26.534;2023-07-09T04:58:48;99367.66;;;19.12;100.00
10618;BME280;5356;43.526;26.534;2023-07-09T05:01:14;99371.16;;;19.18;100.00
10618;BME280;5356;43.526;26.534;2023-07-09T05:03:39;99367.38;;;19.19;100.00
10618;BME280;5356;43.526;26.534;2023-07-09T05:06:05;99368.72;;;19.16;100.00
10618;BME280;5356;43.526;26.534;2023-07-09T05:08:30;99363.31;;;19.26;100.00
10618;BME280;5356;43.526;26.534;2023-07-09T05:10:57;99361.97;;;19.24;100.00
10618;BME280;5356;43.526;26.534;2023-07-09T05:13:23;99355.22;;;19.26;100.00
10618;BME280;5356;43.526;26.534;2023-07-09T05:15:50;99364.91;;;19.48;100.00
10618;BME280;5356;43.526;26.534;2023-07-09T05:18:17;99364.88;;;19.53;100.00
10618;BME280;5356;43.526;26.534;2023-07-09T05:20:43;99367.28;;;19.65;100.00
10618;BME280;5356;43.526;26.534;2023-07-09T05:23:10;99360.25;;;19.79;100.00
10618;BME280;5356;43.526;26.534;2023-07-09T05:25:35;99360.50;;;19.83;100.00
10618;BME280;5356;43.526;26.534;2023-07-09T05:28:02;99367.00;;;19.82;100.00
10618;BME280;5356;43.526;26.534;2023-07-09T05:30:27;99359.06;;;19.95;100.00
10618;BME280;5356;43.526;26.534;2023-07-09T05:32:53;99348.22;;;20.06;100.00
10618;BME280;5356;43.526;26.534;2023-07-09T05:35:21;99355.72;;;20.24;100.00
10618;BME280;5356;43.526;26.534;2023-07-09T05:37:46;99359.22;;;20.25;100.00
10618;BME280;5356;43.526;26.534;2023-07-09T05:40:12;99359.41;;;20.38;100.00
10618;BME280;5356;43.526;26.534;2023-07-09T05:42:38;99348.50;;;20.54;100.00
10618;BME280;5356;43.526;26.534;2023-07-09T05:45:04;99356.50;;;20.69;100.00
10618;BME280;5356;43.526;26.534;2023-07-09T05:47:29;99348.31;;;20.79;100.00
10618;BME280;5356;43.526;26.534;2023-07-09T05:49:54;99343.88;;;20.94;100.00
10618;BME280;5356;43.526;26.534;2023-07-09T05:52:21;99351.34;;;21.07;100.00
10618;BME280;5356;43.526;26.534;2023-07-09T05:54:51;99362.06;;;21.17;100.00
10618;BME280;5356;43.526;26.534;2023-07-09T05:57:17;99350.03;;;21.28;100.00
10618;BME280;5356;43.526;26.534;2023-07-09T05:59:43;99349.72;;;21.40;100.00
10618;BME280;5356;43.526;26.534;2023-07-09T06:02:15;99347.94;;;21.55;100.00
10618;BME280;5356;43.526;26.534;2023-07-09T06:04:41;99353.91;;;21.75;100.00
10618;BME280;5356;43.526;26.534;2023-07-09T06:07:08;99354.03;;;21.89;100.00
10618;BME280;5356;43.526;26.534;2023-07-09T06:09:34;99351.09;;;22.05;100.00
10618;BME280;5356;43.526;26.534;2023-07-09T06:12:01;99348.22;;;22.20;100.00
10618;BME280;5356;43.526;26.534;2023-07-09T06:14:27;99344.28;;;22.31;100.00
10618;BME280;5356;43.526;26.534;2023-07-09T06:16:52;99349.19;;;22.48;100.00
10618;BME280;5356;43.526;26.534;2023-07-09T06:19:18;99351.66;;;22.63;98.65
10618;BME280;5356;43.526;26.534;2023-07-09T06:21:43;99346.69;;;22.71;94.36
10618;BME280;5356;43.526;26.534;2023-07-09T06:24:09;99350.53;;;22.83;95.14
10618;BME280;5356;43.526;26.534;2023-07-09T06:26:35;99350.66;;;22.92;92.23
10618;BME280;5356;43.526;26.534;2023-07-09T06:29:01;99348.53;;;23.08;92.75
10618;BME280;5356;43.526;26.534;2023-07-09T06:31:26;99344.31;;;23.16;89.15
10618;BME280;5356;43.526;26.534;2023-07-09T06:33:52;99356.31;;;23.28;90.54
10618;BME280;5356;43.526;26.534;2023-07-09T06:36:18;99345.47;;;23.42;90.25
10618;BME280;5356;43.526;26.534;2023-07-09T06:38:44;99351.81;;;23.51;84.18
10618;BME280;5356;43.526;26.534;2023-07-09T06:41:11;99352.84;;;23.56;83.21
10618;BME280;5356;43.526;26.534;2023-07-09T06:43:36;99347.19;;;23.66;80.36
10618;BME280;5356;43.526;26.534;2023-07-09T06:46:07;99354.38;;;23.75;77.37
10618;BME280;5356;43.526;26.534;2023-07-09T06:48:34;99340.25;;;23.87;80.41
10618;BME280;5356;43.526;26.534;2023-07-09T06:50:59;99345.78;;;23.96;80.62
10618;BME280;5356;43.526;26.534;2023-07-09T06:53:26;99345.06;;;24.04;76.57
10618;BME280;5356;43.526;26.534;2023-07-09T06:55:52;99340.31;;;24.10;76.88
10618;BME280;5356;43.526;26.534;2023-07-09T06:58:25;99334.84;;;24.24;75.40
10618;BME280;5356;43.526;26.534;2023-07-09T07:00:51;99335.63;;;24.38;72.92
10618;BME280;5356;43.526;26.534;2023-07-09T07:03:17;99337.22;;;24.39;67.41
10618;BME280;5356;43.526;26.534;2023-07-09T07:05:49;99336.59;;;24.42;67.54
10618;BME280;5356;43.526;26.534;2023-07-09T07:08:18;99327.63;;;24.55;67.61
10618;BME280;5356;43.526;26.534;2023-07-09T07:10:45;99322.59;;;24.71;64.61
10618;BME280;5356;43.526;26.534;2023-07-09T07:13:12;99342.78;;;24.70;60.59
10618;BME280;5356;43.526;26.534;2023-07-09T07:15:38;99330.47;;;24.73;60.45
10618;BME280;5356;43.526;26.534;2023-07-09T07:18:04;99331.53;;;24.85;63.08
10618;BME280;5356;43.526;26.534;2023-07-09T07:20:30;99338.44;;;24.92;60.34
10618;BME280;5356;43.526;26.534;2023-07-09T07:22:56;99321.97;;;24.97;58.99
10618;BME280;5356;43.526;26.534;2023-07-09T07:25:23;99328.91;;;25.03;58.88
10618;BME280;5356;43.526;26.534;2023-07-09T07:27:48;99336.31;;;25.11;57.73
10618;BME280;5356;43.526;26.534;2023-07-09T07:30:14;99349.34;;;25.14;57.51
10618;BME280;5356;43.526;26.534;2023-07-09T07:32:47;99341.53;;;25.21;56.00
10618;BME280;5356;43.526;26.534;2023-07-09T07:35:16;99331.03;;;25.37;57.03
10618;BME280;5356;43.526;26.534;2023-07-09T07:37:43;99332.66;;;25.47;56.93
10618;BME280;5356;43.526;26.534;2023-07-09T07:40:10;99347.13;;;25.56;56.64
10618;BME280;5356;43.526;26.534;2023-07-09T07:42:36;99330.94;;;25.60;56.31
10618;BME280;5356;43.526;26.534;2023-07-09T07:45:02;99329.97;;;25.64;54.90
10618;BME280;5356;43.526;26.534;2023-07-09T07:47:29;99335.66;;;25.76;55.72
10618;BME280;5356;43.526;26.534;2023-07-09T07:49:55;99337.31;;;25.86;55.23
10618;BME280;5356;43.526;26.534;2023-07-09T07:52:20;99332.50;;;25.92;55.88
10618;BME280;5356;43.526;26.534;2023-07-09T07:54:46;99331.88;;;25.95;53.53
10618;BME280;5356;43.526;26.534;2023-07-09T07:57:11;99345.38;;;26.00;52.77
10618;BME280;5356;43.526;26.534;2023-07-09T07:59:37;99338.00;;;26.09;52.79
10618;BME280;5356;43.526;26.534;2023-07-09T08:02:04;99324.97;;;26.15;52.75
10618;BME280;5356;43.526;26.534;2023-07-09T08:04:31;99326.13;;;26.23;53.07
10618;BME280;5356;43.526;26.534;2023-07-09T08:06:56;99332.22;;;26.28;52.64
10618;BME280;5356;43.526;26.534;2023-07-09T08:09:22;99321.94;;;26.34;51.31
10618;BME280;5356;43.526;26.534;2023-07-09T08:11:47;99326.78;;;26.37;50.19
10618;BME280;5356;43.526;26.534;2023-07-09T08:14:15;99315.19;;;26.40;50.72
10618;BME280;5356;43.526;26.534;2023-07-09T08:16:41;99314.41;;;26.48;50.49
10618;BME280;5356;43.526;26.534;2023-07-09T08:19:06;99315.22;;;26.57;50.55
10618;BME280;5356;43.526;26.534;2023-07-09T08:21:32;99312.31;;;26.62;50.07
10618;BME280;5356;43.526;26.534;2023-07-09T08:23:57;99310.06;;;26.64;49.81
10618;BME280;5356;43.526;26.534;2023-07-09T08:26:23;99319.06;;;26.74;49.72
10618;BME280;5356;43.526;26.534;2023-07-09T08:28:50;99311.00;;;26.86;49.42
10618;BME280;5356;43.526;26.534;2023-07-09T08:31:16;99312.31;;;26.71;48.25
10618;BME280;5356;43.526;26.534;2023-07-09T08:33:41;99309.56;;;26.80;48.70
10618;BME280;5356;43.526;26.534;2023-07-09T08:36:07;99315.66;;;26.85;49.38
10618;BME280;5356;43.526;26.534;2023-07-09T08:38:32;99315.47;;;26.99;49.63
10618;BME280;5356;43.526;26.534;2023-07-09T08:41:08;99306.31;;;27.04;49.13
10618;BME280;5356;43.526;26.534;2023-07-09T08:43:46;99307.56;;;27.15;49.30
10618;BME280;5356;43.526;26.534;2023-07-09T08:49:14;99309.31;;;27.20;47.83
10618;BME280;5356;43.526;26.534;2023-07-09T08:51:42;99314.44;;;27.30;47.82
10618;BME280;5356;43.526;26.534;2023-07-09T08:54:22;99313.13;;;27.36;46.48
10618;BME280;5356;43.526;26.534;2023-07-09T08:56:50;99311.00;;;27.42;45.76
10618;BME280;5356;43.526;26.534;2023-07-09T08:59:17;99328.72;;;27.44;45.99
10618;BME280;5356;43.526;26.534;2023-07-09T09:01:51;99323.91;;;27.41;46.13
10618;BME280;5356;43.526;26.534;2023-07-09T09:04:34;99317.56;;;27.49;46.41
10618;BME280;5356;43.526;26.534;2023-07-09T09:09:59;99313.41;;;27.73;45.25
10618;BME280;5356;43.526;26.534;2023-07-09T09:12:40;99315.16;;;27.86;45.67
10618;BME280;5356;43.526;26.534;2023-07-09T09:15:15;99317.41;;;27.84;45.72
10618;BME280;5356;43.526;26.534;2023-07-09T09:17:42;99329.31;;;27.88;45.14
10618;BME280;5356;43.526;26.534;2023-07-09T09:20:18;99324.25;;;27.99;44.91
10618;BME280;5356;43.526;26.534;2023-07-09T09:22:52;99316.81;;;27.99;45.16
10618;BME280;5356;43.526;26.534;2023-07-09T09:25:26;99316.09;;;27.90;44.18
10618;BME280;5356;43.526;26.534;2023-07-09T09:27:52;99317.91;;;27.86;44.46
10618;BME280;5356;43.526;26.534;2023-07-09T09:30:20;99319.31;;;27.92;43.76
10618;BME280;5356;43.526;26.534;2023-07-09T09:35:20;99320.13;;;28.14;42.51
10618;BME280;5356;43.526;26.534;2023-07-09T09:37:52;99324.28;;;28.20;42.73
10618;BME280;5356;43.526;26.534;2023-07-09T09:40:19;99319.31;;;28.34;42.90
10618;BME280;5356;43.526;26.534;2023-07-09T09:42:54;99327.75;;;28.50;42.71
10618;BME280;5356;43.526;26.534;2023-07-09T09:45:21;99312.50;;;28.61;42.26
10618;BME280;5356;43.526;26.534;2023-07-09T09:47:48;99322.47;;;28.66;42.22
10618;BME280;5356;43.526;26.534;2023-07-09T09:50:15;99317.00;;;28.78;42.57
10618;BME280;5356;43.526;26.534;2023-07-09T09:52:41;99319.91;;;28.61;40.43
10618;BME280;5356;43.526;26.534;2023-07-09T09:55:16;99326.66;;;28.63;41.23
10618;BME280;5356;43.526;26.534;2023-07-09T09:57:48;99317.66;;;28.63;40.51
10618;BME280;5356;43.526;26.534;2023-07-09T10:00:15;99321.69;;;28.78;40.91
10618;BME280;5356;43.526;26.534;2023-07-09T10:02:41;99325.13;;;28.87;40.62
10618;BME280;5356;43.526;26.534;2023-07-09T10:05:14;99326.19;;;28.95;39.68
10618;BME280;5356;43.526;26.534;2023-07-09T10:07:51;99310.69;;;28.99;39.83
10618;BME280;5356;43.526;26.534;2023-07-09T10:10:23;99318.16;;;29.11;40.68
10618;BME280;5356;43.526;26.534;2023-07-09T10:12:56;99313.69;;;29.18;40.08
10618;BME280;5356;43.526;26.534;2023-07-09T10:15:48;99310.06;;;29.26;39.78
10618;BME280;5356;43.526;26.534;2023-07-09T10:18:40;99312.81;;;29.39;39.82
10618;BME280;5356;43.526;26.534;2023-07-09T10:21:19;99316.50;;;29.67;39.87
10618;BME280;5356;43.526;26.534;2023-07-09T10:26:47;99319.00;;;29.36;37.97
10618;BME280;5356;43.526;26.534;2023-07-09T10:34:32;99301.59;;;29.81;38.71
10618;BME280;5356;43.526;26.534;2023-07-09T10:39:47;99302.41;;;29.57;38.63
10618;BME280;5356;43.526;26.534;2023-07-09T10:42:21;99301.59;;;29.81;38.79
10618;BME280;5356;43.526;26.534;2023-07-09T10:44:59;99289.25;;;29.87;38.24
10618;BME280;5356;43.526;26.534;2023-07-09T10:47:35;99305.47;;;29.92;38.06
10618;BME280;5356;43.526;26.534;2023-07-09T10:50:04;99301.94;;;29.91;38.33
10618;BME280;5356;43.526;26.534;2023-07-09T10:52:34;99296.13;;;29.93;37.42
10618;BME280;5356;43.526;26.534;2023-07-09T10:57:58;99300.19;;;30.11;38.19
10618;BME280;5356;43.526;26.534;2023-07-09T11:00:33;99300.19;;;30.24;37.85
10618;BME280;5356;43.526;26.534;2023-07-09T11:03:21;99294.22;;;30.22;37.96
10618;BME280;5356;43.526;26.534;2023-07-09T11:05:50;99282.69;;;30.04;38.12
10618;BME280;5356;43.526;26.534;2023-07-09T11:08:23;99301.66;;;30.09;38.40
10618;BME280;5356;43.526;26.534;2023-07-09T11:10:57;99289.69;;;30.01;37.66
10618;BME280;5356;43.526;26.534;2023-07-09T11:13:38;99292.56;;;29.92;38.03
10618;BME280;5356;43.526;26.534;2023-07-09T11:16:06;99285.34;;;29.88;38.03
10618;BME280;5356;43.526;26.534;2023-07-09T11:18:34;99293.50;;;29.72;37.53
10618;BME280;5356;43.526;26.534;2023-07-09T11:21:04;99284.44;;;29.96;37.07
10618;BME280;5356;43.526;26.534;2023-07-09T11:23:51;99296.88;;;30.06;37.22
10618;BME280;5356;43.526;26.534;2023-07-09T11:26:28;99289.88;;;30.08;37.64
10618;BME280;5356;43.526;26.534;2023-07-09T11:29:18;99295.03;;;30.22;37.18
10618;BME280;5356;43.526;26.534;2023-07-09T11:31:45;99290.50;;;30.42;36.22
10618;BME280;5356;43.526;26.534;2023-07-09T11:34:16;99285.44;;;30.44;35.98
10618;BME280;5356;43.526;26.534;2023-07-09T11:41:45;99280.25;;;30.71;35.18
10618;BME280;5356;43.526;26.534;2023-07-09T11:44:32;99269.88;;;30.64;35.64
10618;BME280;5356;43.526;26.534;2023-07-09T11:47:23;99266.69;;;30.62;35.20
10618;BME280;5356;43.526;26.534;2023-07-09T11:49:59;99280.53;;;30.65;35.10
10618;BME280;5356;43.526;26.534;2023-07-09T11:52:37;99272.56;;;30.76;35.51
10618;BME280;5356;43.526;26.534;2023-07-09T11:55:43;99279.53;;;30.86;35.17
10618;BME280;5356;43.526;26.534;2023-07-09T11:58:12;99273.34;;;30.61;34.95
10618;BME280;5356;43.526;26.534;2023-07-09T12:00:41;99273.44;;;30.36;35.31
10618;BME280;5356;43.526;26.534;2023-07-09T12:03:18;99263.53;;;30.48;35.10
10618;BME280;5356;43.526;26.534;2023-07-09T12:05:50;99269.63;;;30.69;35.25
10618;BME280;5356;43.526;26.534;2023-07-09T12:08:16;99266.41;;;30.95;35.00
10618;BME280;5356;43.526;26.534;2023-07-09T12:10:44;99262.25;;;31.17;34.85
10618;BME280;5356;43.526;26.534;2023-07-09T12:13:10;99258.69;;;31.01;35.07
10618;BME280;5356;43.526;26.534;2023-07-09T12:15:39;99253.69;;;31.22;35.52
10618;BME280;5356;43.526;26.534;2023-07-09T12:18:11;99254.69;;;31.14;35.50
10618;BME280;5356;43.526;26.534;2023-07-09T12:20:38;99257.53;;;31.18;35.25
10618;BME280;5356;43.526;26.534;2023-07-09T12:23:26;99257.25;;;31.23;35.14
10618;BME280;5356;43.526;26.534;2023-07-09T12:25:53;99261.00;;;31.46;35.03
10618;BME280;5356;43.526;26.534;2023-07-09T12:28:20;99255.75;;;31.41;34.80
10618;BME280;5356;43.526;26.534;2023-07-09T12:30:47;99255.03;;;31.44;34.41
10618;BME280;5356;43.526;26.534;2023-07-09T12:33:20;99256.00;;;31.52;34.15
10618;BME280;5356;43.526;26.534;2023-07-09T12:35:47;99257.72;;;31.41;34.13
10618;BME280;5356;43.526;26.534;2023-07-09T12:38:20;99248.72;;;31.28;34.61
10618;BME280;5356;43.526;26.534;2023-07-09T12:40:50;99255.28;;;31.55;34.47
10618;BME280;5356;43.526;26.534;2023-07-09T12:43:27;99243.56;;;31.93;35.01
10618;BME280;5356;43.526;26.534;2023-07-09T12:45:53;99249.94;;;31.62;34.79
10618;BME280;5356;43.526;26.534;2023-07-09T12:48:25;99252.41;;;31.67;35.30
10618;BME280;5356;43.526;26.534;2023-07-09T12:50:54;99248.31;;;31.77;34.44
10618;BME280;5356;43.526;26.534;2023-07-09T12:53:20;99251.81;;;32.13;34.59
10618;BME280;5356;43.526;26.534;2023-07-09T12:55:47;99241.81;;;32.24;34.68
10618;BME280;5356;43.526;26.534;2023-07-09T12:58:23;99248.50;;;32.04;33.69
10618;BME280;5356;43.526;26.534;2023-07-09T13:00:51;99244.00;;;32.15;34.10
10618;BME280;5356;43.526;26.534;2023-07-09T13:03:25;99241.59;;;32.33;34.27
10618;BME280;5356;43.526;26.534;2023-07-09T13:05:56;99248.44;;;32.39;33.87
10618;BME280;5356;43.526;26.534;2023-07-09T13:08:24;99230.72;;;32.40;33.38
10618;BME280;5356;43.526;26.534;2023-07-09T13:10:50;99229.22;;;32.65;34.08
10618;BME280;5356;43.526;26.534;2023-07-09T13:13:19;99233.47;;;32.40;33.46
10618;BME280;5356;43.526;26.534;2023-07-09T13:15:55;99232.53;;;32.32;33.42
10618;BME280;5356;43.526;26.534;2023-07-09T13:18:27;99224.41;;;32.59;33.40
10618;BME280;5356;43.526;26.534;2023-07-09T13:20:56;99233.53;;;32.63;32.84
10618;BME280;5356;43.526;26.534;2023-07-09T13:23:27;99224.88;;;32.64;32.86
10618;BME280;5356;43.526;26.534;2023-07-09T13:25:54;99234.22;;;32.79;32.44
10618;BME280;5356;43.526;26.534;2023-07-09T13:28:28;99223.28;;;32.86;32.13
10618;BME280;5356;43.526;26.534;2023-07-09T13:31:04;99226.47;;;32.88;32.21
10618;BME280;5356;43.526;26.534;2023-07-09T13:33:34;99230.28;;;32.80;31.98